Time;durP1;ratioP1;P1;durP2;ratioP2;P2;SDS_P1;SDS_P2;PMS_P1;PMS_P2;Temp;Humidity;BMP_temperature;BMP_pressure;BME280_temperature;BME280_humidity;BME280_pressure;Samples;Min_cycle;Max_cycle;Signal;HPM_P1;HPM_P2
2023/06/09 00:01:35;;;;;;;4.90;2.42;;;17.60;99.90;;;;;;4129574;28;20030;-62
2023/06/09 00:03:37;;;;;;;4.88;2.20;;;17.60;99.90;;;;;;4128851;28;20454;-63
2023/06/09 00:05:40;;;;;;;2.65;2.30;;;17.60;99.90;;;;;;4144159;28;20042;-63
2023/06/09 00:07:41;;;;;;;4.50;2.60;;;17.60;99.90;;;;;;4128671;28;20088;-63
2023/06/09 00:09:43;;;;;;;5.22;2.60;;;17.60;99.90;;;;;;4128997;28;20073;-64
2023/06/09 00:11:45;;;;;;;3.45;2.75;;;17.50;99.90;;;;;;4129274;28;20449;-64
2023/06/09 00:13:46;;;;;;;4.03;2.90;;;17.50;99.90;;;;;;4128660;28;20026;-68
2023/06/09 00:15:48;;;;;;;4.00;3.33;;;17.50;99.90;;;;;;4129646;28;20042;-63
2023/06/09 00:17:49;;;;;;;4.45;2.83;;;17.50;99.90;;;;;;4127701;28;20084;-63
2023/06/09 00:19:52;;;;;;;7.57;2.95;;;17.50;99.90;;;;;;4129118;28;20042;-62
2023/06/09 00:21:53;;;;;;;4.57;3.08;;;17.50;99.90;;;;;;4128398;28;20065;-64
2023/06/09 00:23:55;;;;;;;4.20;3.33;;;17.40;99.90;;;;;;4129461;28;20085;-63
2023/06/09 00:25:57;;;;;;;3.40;2.65;;;17.40;99.90;;;;;;4127852;28;20054;-63
2023/06/09 00:27:58;;;;;;;6.18;3.30;;;17.30;99.90;;;;;;4129634;28;20042;-66
2023/06/09 00:29:59;;;;;;;3.22;2.67;;;17.20;99.90;;;;;;4143139;28;20029;-63
2023/06/09 00:32:00;;;;;;;4.57;3.10;;;17.20;99.90;;;;;;4129579;28;20352;-66
2023/06/09 00:34:01;;;;;;;4.43;3.00;;;17.20;99.90;;;;;;4128564;28;20077;-62
2023/06/09 00:36:02;;;;;;;3.50;2.90;;;17.20;99.90;;;;;;4128847;28;20038;-62
2023/06/09 00:38:04;;;;;;;4.80;2.03;;;17.10;99.90;;;;;;4128610;28;20085;-62
2023/06/09 00:40:07;;;;;;;4.10;3.20;;;17.10;99.90;;;;;;4127846;28;20038;-61
2023/06/09 00:42:08;;;;;;;4.75;3.05;;;17.00;99.90;;;;;;4128310;28;20073;-62
2023/06/09 00:44:09;;;;;;;4.03;3.22;;;17.00;99.90;;;;;;4127714;28;20046;-62
2023/06/09 00:46:11;;;;;;;4.10;3.65;;;16.90;99.90;;;;;;4129312;28;20046;-62
2023/06/09 00:48:13;;;;;;;5.55;3.30;;;16.90;99.90;;;;;;4128133;28;20238;-63
2023/06/09 00:50:16;;;;;;;7.05;3.20;;;16.80;99.90;;;;;;4129470;28;20048;-62
2023/06/09 00:52:18;;;;;;;5.90;3.35;;;16.80;99.90;;;;;;4128131;28;20077;-61
2023/06/09 00:54:20;;;;;;;3.97;3.00;;;16.80;99.90;;;;;;4129495;28;20077;-63
2023/06/09 00:56:23;;;;;;;6.53;2.80;;;16.80;99.90;;;;;;4128733;28;20042;-65
2023/06/09 00:58:25;;;;;;;4.18;3.00;;;16.80;99.90;;;;;;4129418;28;20096;-64
2023/06/09 01:00:28;;;;;;;5.80;3.30;;;16.80;99.90;;;;;;4127887;28;20034;-62
2023/06/09 01:02:30;;;;;;;6.85;3.30;;;16.80;99.90;;;;;;4129385;28;20046;-61
2023/06/09 01:04:34;;;;;;;5.20;3.58;;;16.80;99.90;;;;;;4127429;28;20466;-61
2023/06/09 01:06:56;;;;;;;4.10;3.13;;;16.80;99.90;;;;;;4127020;28;20451;-62
2023/06/09 01:09:02;;;;;;;3.75;3.03;;;16.80;99.90;;;;;;4128065;28;20054;-62
2023/06/09 01:11:20;;;;;;;6.30;3.40;;;16.80;99.90;;;;;;4129389;28;20460;-62
2023/06/09 01:13:33;;;;;;;4.97;3.13;;;16.70;99.90;;;;;;4127952;28;20495;-62
2023/06/09 01:15:42;;;;;;;4.90;3.45;;;16.70;99.90;;;;;;4129161;28;20042;-62
2023/06/09 01:17:50;;;;;;;3.10;2.80;;;16.80;99.90;;;;;;4127469;28;20380;-64
2023/06/09 01:19:58;;;;;;;2.90;2.60;;;16.80;99.90;;;;;;4128820;28;20502;-68
2023/06/09 01:22:06;;;;;;;2.75;2.33;;;16.80;99.90;;;;;;4127058;28;20042;-63
2023/06/09 01:24:26;;;;;;;3.40;2.30;;;16.80;99.90;;;;;;4128717;28;20902;-61
2023/06/09 01:26:28;;;;;;;6.20;2.60;;;16.80;99.90;;;;;;4127713;28;20093;-62
2023/06/09 01:28:30;;;;;;;4.47;2.65;;;16.80;99.90;;;;;;4129643;28;20085;-61
2023/06/09 01:30:33;;;;;;;3.95;2.22;;;16.70;99.90;;;;;;4131019;28;20072;-62
2023/06/09 01:32:35;;;;;;;2.63;2.28;;;16.70;99.90;;;;;;4132026;28;20081;-62
2023/06/09 01:34:37;;;;;;;3.47;2.40;;;16.70;99.90;;;;;;4130710;28;20034;-62
2023/06/09 01:36:40;;;;;;;2.58;2.28;;;16.70;99.90;;;;;;4131543;28;20383;-61
2023/06/09 01:38:41;;;;;;;3.92;2.60;;;16.60;99.90;;;;;;4131180;28;20023;-61
2023/06/09 01:40:44;;;;;;;5.22;3.22;;;16.60;99.90;;;;;;4146347;28;20030;-61
2023/06/09 01:42:45;;;;;;;4.80;2.88;;;16.60;99.90;;;;;;4130887;28;20109;-62
2023/06/09 01:44:46;;;;;;;3.25;2.90;;;16.60;99.90;;;;;;4130299;28;20097;-63
2023/06/09 01:46:47;;;;;;;3.17;2.70;;;16.60;99.90;;;;;;4131762;28;20034;-62
2023/06/09 01:49:21;;;;;;;4.05;2.75;;;16.60;99.90;;;;;;4130159;28;20073;-63
2023/06/09 01:51:29;;;;;;;2.42;2.22;;;16.60;99.90;;;;;;4131694;28;20030;-62
2023/06/09 01:53:36;;;;;;;2.95;2.60;;;16.60;99.90;;;;;;4130093;28;20050;-62
2023/06/09 01:55:42;;;;;;;3.05;2.33;;;16.60;99.90;;;;;;4129527;28;20107;-61
2023/06/09 01:57:51;;;;;;;2.47;2.28;;;16.60;99.90;;;;;;4130513;28;20046;-65
2023/06/09 01:59:59;;;;;;;4.07;2.80;;;16.60;99.90;;;;;;4131278;28;20088;-62
2023/06/09 02:02:03;;;;;;;3.25;2.45;;;16.50;99.90;;;;;;4130421;28;20034;-62
2023/06/09 02:04:06;;;;;;;2.80;2.47;;;16.50;99.90;;;;;;4131655;28;20081;-66
2023/06/09 02:06:10;;;;;;;4.43;2.58;;;16.50;99.90;;;;;;4130164;28;20094;-63
2023/06/09 02:08:13;;;;;;;5.28;2.92;;;16.60;99.90;;;;;;4145121;28;20111;-65
2023/06/09 02:10:15;;;;;;;4.30;2.50;;;16.60;99.90;;;;;;4130347;28;20085;-62
2023/06/09 02:12:16;;;;;;;2.60;2.40;;;16.50;99.90;;;;;;4131648;28;20084;-63
2023/06/09 02:14:18;;;;;;;3.13;2.60;;;16.50;99.90;;;;;;4130045;28;20095;-63
2023/06/09 02:16:19;;;;;;;3.30;2.38;;;16.50;99.90;;;;;;4131041;28;20387;-64
2023/06/09 02:18:21;;;;;;;3.55;2.33;;;16.40;99.90;;;;;;4130077;28;20054;-64
2023/06/09 02:20:22;;;;;;;4.53;2.90;;;16.40;99.90;;;;;;4131499;28;20414;-64
2023/06/09 02:22:23;;;;;;;3.35;2.92;;;16.40;99.90;;;;;;4129487;28;20050;-63
2023/06/09 02:24:28;;;;;;;5.20;2.80;;;16.40;99.90;;;;;;4130913;28;20096;-65
2023/06/09 02:26:29;;;;;;;4.45;2.78;;;16.40;99.90;;;;;;4130317;28;20054;-63
2023/06/09 02:28:30;;;;;;;5.68;2.63;;;16.50;99.90;;;;;;4131066;28;20027;-64
2023/06/09 02:30:32;;;;;;;3.55;2.70;;;16.40;99.90;;;;;;4129890;28;20034;-62
2023/06/09 02:32:34;;;;;;;2.67;2.20;;;16.40;99.90;;;;;;4130438;28;20018;-64
2023/06/09 02:34:37;;;;;;;7.63;2.40;;;16.40;99.90;;;;;;4130723;28;20076;-63
2023/06/09 02:36:42;;;;;;;2.78;2.55;;;16.40;99.90;;;;;;4129916;28;20018;-62
2023/06/09 02:38:43;;;;;;;2.67;2.47;;;16.40;99.90;;;;;;4131129;28;20042;-62
2023/06/09 02:40:49;;;;;;;4.95;2.63;;;16.40;99.90;;;;;;4128772;28;20038;-68
2023/06/09 02:42:50;;;;;;;3.83;2.60;;;16.40;99.90;;;;;;4130974;28;20026;-63
2023/06/09 02:44:51;;;;;;;2.58;2.38;;;16.40;99.90;;;;;;4129742;28;20562;-63
2023/06/09 02:46:52;;;;;;;7.40;2.92;;;16.40;99.90;;;;;;4130093;28;20031;-63
2023/06/09 02:48:53;;;;;;;2.35;2.15;;;16.30;99.90;;;;;;4129901;28;20050;-62
2023/06/09 02:50:54;;;;;;;6.35;3.15;;;16.20;99.90;;;;;;4130623;28;20077;-63
2023/06/09 02:52:56;;;;;;;4.63;2.58;;;16.20;99.90;;;;;;4129446;28;20022;-66
2023/06/09 02:54:58;;;;;;;3.22;2.88;;;16.20;99.90;;;;;;4130916;28;20483;-64
2023/06/09 02:56:59;;;;;;;3.08;2.72;;;16.20;99.90;;;;;;4129947;28;20081;-61
2023/06/09 02:59:00;;;;;;;5.22;2.97;;;16.20;99.90;;;;;;4128651;28;20105;-62
2023/06/09 03:01:02;;;;;;;8.27;3.00;;;16.20;99.90;;;;;;4129900;28;20015;-62
2023/06/09 03:03:06;;;;;;;6.78;3.10;;;16.20;99.90;;;;;;4129825;28;20368;-64
2023/06/09 03:05:09;;;;;;;5.95;2.88;;;16.20;99.90;;;;;;4130177;28;20066;-63
2023/06/09 03:07:13;;;;;;;4.38;3.03;;;16.30;99.90;;;;;;4129927;28;20434;-64
2023/06/09 03:09:15;;;;;;;2.80;2.60;;;16.40;99.90;;;;;;4129975;28;20085;-65
2023/06/09 03:11:16;;;;;;;12.13;8.82;;;16.50;99.90;;;;;;4129045;28;20430;-65
2023/06/09 03:13:17;;;;;;;7.75;4.88;;;16.60;99.90;;;;;;4129987;28;20035;-63
2023/06/09 03:15:18;;;;;;;8.40;5.07;;;16.60;99.90;;;;;;4129365;28;20818;-62
2023/06/09 03:17:19;;;;;;;6.93;3.20;;;16.70;99.90;;;;;;4130208;28;20475;-63
2023/06/09 03:19:20;;;;;;;4.47;2.72;;;16.70;99.90;;;;;;4126258;28;20090;-63
2023/06/09 03:21:24;;;;;;;5.68;3.33;;;16.70;99.90;;;;;;4130432;28;20030;-63
2023/06/09 03:23:25;;;;;;;4.45;2.70;;;16.60;99.90;;;;;;4129018;28;20030;-68
2023/06/09 03:25:27;;;;;;;3.92;3.25;;;16.60;99.90;;;;;;4130293;28;20085;-63
2023/06/09 03:27:29;;;;;;;5.93;3.00;;;16.60;99.90;;;;;;4129233;28;20050;-66
2023/06/09 03:29:30;;;;;;;3.40;2.88;;;16.70;99.90;;;;;;4130480;28;20513;-63
2023/06/09 03:31:31;;;;;;;4.97;2.67;;;16.70;99.90;;;;;;4129129;28;20034;-63
2023/06/09 03:33:33;;;;;;;5.38;2.90;;;16.80;99.90;;;;;;4129963;28;20868;-64
2023/06/09 03:35:34;;;;;;;2.75;2.42;;;16.90;99.90;;;;;;4129493;28;20050;-63
2023/06/09 03:37:35;;;;;;;3.50;2.70;;;17.00;99.90;;;;;;4128807;28;20042;-62
2023/06/09 03:39:36;;;;;;;3.00;2.53;;;17.20;99.90;;;;;;4129649;28;20015;-64
2023/06/09 03:41:37;;;;;;;4.18;2.70;;;17.50;99.90;;;;;;4129218;28;20138;-63
2023/06/09 03:43:38;;;;;;;3.53;2.47;;;17.80;99.90;;;;;;4129622;28;20486;-64
2023/06/09 03:45:40;;;;;;;5.72;2.72;;;18.10;99.90;;;;;;4143710;28;20123;-65
2023/06/09 03:47:41;;;;;;;2.40;2.15;;;18.30;99.90;;;;;;4129553;28;20054;-70
2023/06/09 03:49:43;;;;;;;5.78;2.78;;;18.60;99.90;;;;;;4128480;28;20039;-65
2023/06/09 03:51:44;;;;;;;3.95;2.67;;;18.90;99.90;;;;;;4127971;28;20054;-65
2023/06/09 03:53:46;;;;;;;6.03;2.30;;;19.20;99.90;;;;;;4128593;28;20051;-63
2023/06/09 03:55:47;;;;;;;4.15;2.42;;;19.60;99.90;;;;;;4129749;28;20042;-68
2023/06/09 03:57:48;;;;;;;3.00;2.13;;;20.00;99.90;;;;;;4128950;28;20027;-67
2023/06/09 03:59:50;;;;;;;5.70;3.08;;;20.30;99.90;;;;;;4136210;28;20038;-66
2023/06/09 04:01:51;;;;;;;5.10;2.17;;;20.50;99.90;;;;;;4144470;28;20050;-66
2023/06/09 04:03:52;;;;;;;3.53;2.55;;;20.60;99.90;;;;;;4145705;28;20811;-66
2023/06/09 04:05:54;;;;;;;3.53;2.40;;;20.40;99.90;;;;;;4144903;28;20054;-64
2023/06/09 04:07:55;;;;;;;2.60;2.40;;;20.40;99.90;;;;;;4144874;28;20485;-65
2023/06/09 04:09:56;;;;;;;5.20;2.20;;;20.30;99.90;;;;;;4144230;28;20025;-66
2023/06/09 04:11:58;;;;;;;4.97;2.53;;;20.20;99.90;;;;;;4128018;28;20089;-63
2023/06/09 04:13:59;;;;;;;2.55;2.22;;;20.30;99.90;;;;;;4129171;28;20085;-63
2023/06/09 04:16:00;;;;;;;3.65;2.22;;;20.70;99.90;;;;;;4128191;28;20022;-63
2023/06/09 04:18:03;;;;;;;5.68;1.88;;;21.20;99.90;;;;;;4128919;28;20128;-62
2023/06/09 04:20:07;;;;;;;5.63;2.60;;;21.70;99.90;;;;;;4127662;28;20039;-62
2023/06/09 04:22:10;;;;;;;6.15;2.35;;;22.30;99.90;;;;;;4128221;28;20050;-65
2023/06/09 04:24:11;;;;;;;4.05;1.90;;;23.00;99.90;;;;;;4128297;28;20467;-61
2023/06/09 04:26:13;;;;;;;3.70;1.90;;;23.60;99.90;;;;;;4129026;28;20112;-68
2023/06/09 04:28:17;;;;;;;2.63;1.88;;;23.90;99.90;;;;;;4127474;28;20100;-67
2023/06/09 04:30:25;;;;;;;2.45;2.25;;;24.40;99.90;;;;;;4128699;28;20104;-62
2023/06/09 04:32:32;;;;;;;6.10;2.45;;;24.90;99.90;;;;;;4127962;28;20422;-62
2023/06/09 04:34:39;;;;;;;5.45;2.30;;;25.30;99.90;;;;;;4128823;28;20387;-62
2023/06/09 04:36:40;;;;;;;5.60;2.65;;;25.60;99.90;;;;;;4126731;28;20503;-61
2023/06/09 04:38:42;;;;;;;9.20;2.45;;;26.00;99.90;;;;;;4129303;28;20463;-63
2023/06/09 04:40:45;;;;;;;5.38;2.58;;;26.40;99.90;;;;;;4134776;28;20038;-61
2023/06/09 04:42:46;;;;;;;4.45;2.50;;;26.70;99.90;;;;;;4128415;28;20050;-61
2023/06/09 04:44:48;;;;;;;4.60;2.38;;;26.90;99.90;;;;;;4126680;28;20034;-65
2023/06/09 04:46:49;;;;;;;4.80;2.10;;;27.00;99.90;;;;;;4127918;28;20054;-68
2023/06/09 04:48:54;;;;;;;5.03;1.80;;;26.80;99.90;;;;;;4119400;28;20440;-65
2023/06/09 04:51:00;;;;;;;2.90;1.70;;;26.90;99.90;;;;;;4124027;28;20046;-63
2023/06/09 04:53:07;;;;;;;5.22;1.70;;;27.20;99.90;;;;;;4119804;28;20030;-63
2023/06/09 04:55:08;;;;;;;3.40;1.75;;;27.00;99.90;;;;;;4124047;28;20541;-69
2023/06/09 04:57:10;;;;;;;5.70;1.83;;;26.50;99.90;;;;;;4129014;28;20031;-60
2023/06/09 04:59:12;;;;;;;4.22;1.90;;;26.00;99.90;;;;;;4126083;28;20038;-59
2023/06/09 05:01:13;;;;;;;5.03;1.90;;;25.60;99.90;;;;;;4127842;28;20465;-61
2023/06/09 05:03:17;;;;;;;4.95;1.90;;;25.20;99.90;;;;;;4127641;28;20038;-59
2023/06/09 05:05:19;;;;;;;3.20;2.13;;;25.10;99.90;;;;;;4131932;28;20045;-60
2023/06/09 05:07:20;;;;;;;3.15;1.88;;;25.20;99.90;;;;;;4130977;28;20046;-58
2023/06/09 05:09:21;;;;;;;4.47;1.92;;;25.70;99.90;;;;;;4132103;28;20457;-59
2023/06/09 05:11:22;;;;;;;3.53;2.13;;;26.30;99.90;;;;;;4131231;28;20550;-57
2023/06/09 05:13:23;;;;;;;2.28;2.00;;;26.30;99.90;;;;;;4130523;28;20518;-61
2023/06/09 05:15:26;;;;;;;3.10;1.95;;;26.60;99.90;;;;;;4130645;28;20092;-65
2023/06/09 05:17:27;;;;;;;3.13;1.77;;;26.80;99.90;;;;;;4132071;28;20030;-62
2023/06/09 05:19:28;;;;;;;3.42;1.70;;;26.90;99.90;;;;;;4131221;28;20026;-64
2023/06/09 05:21:30;;;;;;;3.25;1.90;;;27.10;99.90;;;;;;4131629;28;20084;-61
2023/06/09 05:23:33;;;;;;;4.47;1.90;;;27.20;99.90;;;;;;4130265;28;20093;-61
2023/06/09 05:25:35;;;;;;;2.60;1.70;;;27.60;99.90;;;;;;4131076;28;20022;-61
2023/06/09 05:27:36;;;;;;;3.30;1.60;;;28.20;99.90;;;;;;4131194;28;20112;-63
2023/06/09 05:29:38;;;;;;;3.78;2.33;;;28.50;99.80;;;;;;4130649;28;20057;-61
2023/06/09 05:31:39;;;;;;;3.25;1.70;;;28.70;99.30;;;;;;4131147;28;20022;-59
2023/06/09 05:33:41;;;;;;;8.02;2.40;;;28.70;99.00;;;;;;4130347;28;20035;-61
2023/06/09 05:35:42;;;;;;;7.53;2.67;;;29.10;98.70;;;;;;4130724;28;21683;-63
2023/06/09 05:37:51;;;;;;;3.58;1.98;;;29.30;98.40;;;;;;4129722;28;20038;-60
2023/06/09 05:39:52;;;;;;;3.55;1.77;;;29.40;97.50;;;;;;4131384;28;20450;-64
2023/06/09 05:41:53;;;;;;;3.65;1.75;;;29.30;97.90;;;;;;4144713;28;20037;-63
2023/06/09 05:43:57;;;;;;;2.15;1.63;;;29.50;97.70;;;;;;4131470;28;20034;-63
2023/06/09 05:45:58;;;;;;;3.38;2.20;;;29.60;97.30;;;;;;4130501;28;20042;-68
2023/06/09 05:48:00;;;;;;;5.65;2.53;;;29.70;97.10;;;;;;4131636;28;20348;-64
2023/06/09 05:50:01;;;;;;;7.72;2.42;;;29.20;97.30;;;;;;4128952;28;20391;-64
2023/06/09 05:52:02;;;;;;;2.83;1.83;;;29.00;97.60;;;;;;4130541;28;20030;-64
2023/06/09 05:54:04;;;;;;;3.70;2.33;;;28.70;97.60;;;;;;4129850;28;20030;-60
2023/06/09 05:56:05;;;;;;;3.83;2.15;;;28.10;98.00;;;;;;4130049;28;20031;-64
2023/06/09 05:58:06;;;;;;;5.13;2.33;;;27.70;98.60;;;;;;4129840;28;20070;-60
2023/06/09 06:00:09;;;;;;;4.50;2.60;;;27.60;98.90;;;;;;4130408;28;20126;-60
2023/06/09 06:02:13;;;;;;;6.82;2.55;;;27.40;99.00;;;;;;4130244;28;20136;-55
2023/06/09 06:04:14;;;;;;;10.00;4.05;;;27.40;99.20;;;;;;4144846;28;20057;-58
2023/06/09 06:06:15;;;;;;;5.18;3.63;;;27.10;99.00;;;;;;4131018;28;20038;-58
2023/06/09 06:08:17;;;;;;;4.55;3.10;;;26.50;99.70;;;;;;4129547;28;20092;-58
2023/06/09 06:10:18;;;;;;;7.18;3.50;;;26.30;99.90;;;;;;4130939;28;20450;-61
2023/06/09 06:12:20;;;;;;;5.18;2.85;;;26.40;99.90;;;;;;4128838;28;20038;-66
2023/06/09 06:14:21;;;;;;;10.15;3.80;;;26.70;99.90;;;;;;4130571;28;20453;-58
2023/06/09 06:16:23;;;;;;;7.00;4.25;;;26.60;99.90;;;;;;4128256;28;20467;-61
2023/06/09 06:18:24;;;;;;;6.47;4.45;;;25.80;99.90;;;;;;4131145;28;20359;-60
2023/06/09 06:20:25;;;;;;;5.72;3.75;;;25.60;99.90;;;;;;4129414;28;20100;-61
2023/06/09 06:22:26;;;;;;;8.73;3.92;;;25.70;99.90;;;;;;4130829;28;20459;-60
2023/06/09 06:24:27;;;;;;;8.57;3.83;;;25.20;99.90;;;;;;4129921;28;20042;-60
2023/06/09 06:26:28;;;;;;;8.38;3.88;;;25.00;99.90;;;;;;4130510;28;20153;-63
2023/06/09 06:28:30;;;;;;;4.78;3.22;;;24.60;99.90;;;;;;4129363;28;20046;-60
2023/06/09 06:30:31;;;;;;;7.40;3.92;;;24.10;99.90;;;;;;4129672;28;20081;-59
2023/06/09 06:32:32;;;;;;;6.53;4.07;;;23.70;99.90;;;;;;4129499;28;20426;-62
2023/06/09 06:34:33;;;;;;;5.75;4.53;;;23.30;99.90;;;;;;4129766;28;20471;-61
2023/06/09 06:36:35;;;;;;;7.57;4.25;;;23.20;99.90;;;;;;4130595;28;20460;-61
2023/06/09 06:38:36;;;;;;;6.05;4.00;;;23.00;99.90;;;;;;4129170;28;20369;-64
2023/06/09 06:40:37;;;;;;;5.57;4.03;;;22.90;99.90;;;;;;4130357;28;20093;-61
2023/06/09 06:42:38;;;;;;;7.72;3.78;;;22.90;99.90;;;;;;4128963;28;20096;-58
2023/06/09 06:44:39;;;;;;;5.07;3.72;;;23.00;99.90;;;;;;4144869;28;20034;-60
2023/06/09 06:46:40;;;;;;;6.22;3.53;;;23.10;99.90;;;;;;4129621;28;20125;-60
2023/06/09 06:48:41;;;;;;;7.82;3.30;;;23.30;99.90;;;;;;4130679;28;20089;-62
2023/06/09 06:50:43;;;;;;;4.20;3.67;;;23.60;99.90;;;;;;4129314;28;20050;-60
2023/06/09 06:52:44;;;;;;;4.43;2.95;;;23.60;99.90;;;;;;4130398;28;20077;-60
2023/06/09 06:54:46;;;;;;;4.55;3.25;;;23.60;99.90;;;;;;4128610;28;20436;-62
2023/06/09 06:56:47;;;;;;;6.53;3.15;;;23.50;99.90;;;;;;4130063;28;20030;-61
2023/06/09 06:58:49;;;;;;;4.95;3.35;;;23.50;99.90;;;;;;4129411;28;20143;-62
2023/06/09 07:00:53;;;;;;;4.72;3.72;;;23.30;99.90;;;;;;4129890;28;20042;-61
2023/06/09 07:02:55;;;;;;;4.03;3.53;;;23.20;99.90;;;;;;4129530;28;20124;-63
2023/06/09 07:04:56;;;;;;;6.72;3.53;;;23.40;99.90;;;;;;4127784;28;20553;-61
2023/06/09 07:06:57;;;;;;;4.88;3.33;;;23.60;99.90;;;;;;4129624;28;20432;-58
2023/06/09 07:08:59;;;;;;;3.97;3.10;;;23.90;99.90;;;;;;4128979;28;20080;-59
2023/06/09 07:11:00;;;;;;;3.78;3.10;;;24.00;99.90;;;;;;4130086;28;20081;-60
2023/06/09 07:13:01;;;;;;;6.95;3.60;;;23.90;99.90;;;;;;4143737;28;20084;-59
2023/06/09 07:15:03;;;;;;;5.35;3.42;;;24.10;99.90;;;;;;4130437;28;20030;-58
2023/06/09 07:17:05;;;;;;;2.65;2.45;;;24.30;99.90;;;;;;4128836;28;20101;-59
2023/06/09 07:19:08;;;;;;;3.53;2.63;;;24.50;99.90;;;;;;4129998;28;20027;-61
2023/06/09 07:21:09;;;;;;;3.08;2.50;;;24.50;99.90;;;;;;4128507;28;20026;-60
2023/06/09 07:23:10;;;;;;;4.18;2.80;;;25.00;99.90;;;;;;4130356;28;20089;-59
2023/06/09 07:25:11;;;;;;;5.15;3.58;;;24.80;99.90;;;;;;4128828;28;20055;-63
2023/06/09 07:27:12;;;;;;;6.43;2.55;;;24.30;99.90;;;;;;4129154;28;20101;-61
2023/06/09 07:29:14;;;;;;;5.32;2.38;;;24.40;99.90;;;;;;4128961;28;20093;-63
2023/06/09 07:31:15;;;;;;;6.50;3.05;;;24.30;99.90;;;;;;4129243;28;20052;-61
2023/06/09 07:33:17;;;;;;;5.82;3.33;;;24.50;99.90;;;;;;4128457;28;20379;-63
2023/06/09 07:35:20;;;;;;;6.38;3.38;;;24.40;99.90;;;;;;4129005;28;20431;-61
2023/06/09 07:37:22;;;;;;;4.63;2.70;;;24.30;99.90;;;;;;4129358;28;20093;-63
2023/06/09 07:39:23;;;;;;;7.97;3.55;;;24.20;99.90;;;;;;4128700;28;20437;-62
2023/06/09 07:41:24;;;;;;;6.35;3.08;;;24.30;99.90;;;;;;4129566;28;20073;-65
2023/06/09 07:43:25;;;;;;;4.05;2.92;;;24.40;99.90;;;;;;4127822;28;20093;-57
2023/06/09 07:45:27;;;;;;;3.55;3.10;;;24.40;99.90;;;;;;4129507;28;20043;-62
2023/06/09 07:47:28;;;;;;;4.55;2.90;;;24.40;99.90;;;;;;4128159;28;20042;-60
2023/06/09 07:49:29;;;;;;;4.20;3.10;;;24.30;99.90;;;;;;4129850;28;20030;-61
2023/06/09 07:51:36;;;;;;;5.38;3.05;;;24.30;99.90;;;;;;4128644;28;20034;-58
2023/06/09 07:53:38;;;;;;;6.65;3.75;;;24.40;99.90;;;;;;4129571;28;20482;-60
2023/06/09 07:55:39;;;;;;;4.22;3.70;;;24.70;99.90;;;;;;4128434;28;20068;-64
2023/06/09 07:57:40;;;;;;;8.40;5.03;;;24.60;99.90;;;;;;4129987;28;20196;-61
2023/06/09 07:59:41;;;;;;;6.07;3.53;;;24.50;99.90;;;;;;4127780;28;20065;-59
2023/06/09 08:01:43;;;;;;;3.17;2.22;;;24.60;99.90;;;;;;4128887;28;20093;-60
2023/06/09 08:03:44;;;;;;;5.00;2.55;;;24.30;99.90;;;;;;4127605;28;20080;-61
2023/06/09 08:05:46;;;;;;;5.78;2.47;;;24.20;99.90;;;;;;4128428;28;20038;-60
2023/06/09 08:07:47;;;;;;;2.55;2.35;;;24.30;99.90;;;;;;4128046;28;20050;-59
2023/06/09 08:09:49;;;;;;;3.42;2.00;;;24.30;99.90;;;;;;4128191;28;20100;-61
2023/06/09 08:11:50;;;;;;;4.53;2.30;;;24.30;99.90;;;;;;4128028;28;20150;-60
2023/06/09 08:13:51;;;;;;;5.95;2.42;;;24.30;99.90;;;;;;4127430;28;20451;-61
2023/06/09 08:15:52;;;;;;;5.80;2.40;;;24.40;99.90;;;;;;4128686;28;20133;-63
2023/06/09 08:17:53;;;;;;;9.77;4.18;;;24.30;99.90;;;;;;4127309;28;20387;-61
2023/06/09 08:19:55;;;;;;;5.90;2.35;;;24.40;99.90;;;;;;4129270;28;20034;-61
2023/06/09 08:21:57;;;;;;;13.07;5.25;;;24.80;99.90;;;;;;4128133;28;20089;-61
2023/06/09 08:23:58;;;;;;;4.63;2.53;;;25.00;99.90;;;;;;4123836;28;20047;-60
2023/06/09 08:25:59;;;;;;;4.05;2.72;;;25.20;99.90;;;;;;4127782;28;20089;-65
2023/06/09 08:28:01;;;;;;;8.55;4.05;;;25.00;99.90;;;;;;4129376;28;20100;-60
2023/06/09 08:30:03;;;;;;;4.25;2.58;;;25.20;99.90;;;;;;4128018;28;20042;-62
2023/06/09 08:32:06;;;;;;;9.23;3.95;;;25.30;99.90;;;;;;4128195;28;20026;-61
2023/06/09 08:34:07;;;;;;;4.50;2.55;;;25.40;99.90;;;;;;4128111;28;20030;-61
2023/06/09 08:36:09;;;;;;;6.65;3.00;;;25.50;99.90;;;;;;4128280;28;20034;-61
2023/06/09 08:38:10;;;;;;;3.47;2.45;;;25.50;99.90;;;;;;4126301;28;20419;-62
2023/06/09 08:40:12;;;;;;;9.00;2.55;;;25.70;99.90;;;;;;4127047;28;20092;-62
2023/06/09 08:42:25;;;;;;;5.40;2.08;;;25.60;99.90;;;;;;4127756;28;20038;-61
2023/06/09 08:44:28;;;;;;;3.55;2.80;;;25.50;99.90;;;;;;4128334;28;20054;-60
2023/06/09 08:46:35;;;;;;;3.17;2.38;;;25.40;99.90;;;;;;4128289;28;20093;-58
2023/06/09 08:48:59;;;;;;;6.03;3.47;;;25.50;99.90;;;;;;4127920;28;20076;-66
2023/06/09 08:51:00;;;;;;;2.50;2.30;;;25.30;99.90;;;;;;4128291;28;20077;-62
2023/06/09 08:53:01;;;;;;;3.45;2.55;;;25.20;99.90;;;;;;4127462;28;20122;-61
2023/06/09 08:55:03;;;;;;;5.75;2.83;;;25.20;99.90;;;;;;4128493;28;20030;-63
2023/06/09 08:57:05;;;;;;;3.40;2.20;;;25.30;99.90;;;;;;4127969;28;20026;-60
2023/06/09 08:59:07;;;;;;;6.05;3.92;;;25.30;99.90;;;;;;4128958;28;20068;-61
2023/06/09 09:01:08;;;;;;;3.90;3.10;;;25.40;99.90;;;;;;4127313;28;20031;-63
2023/06/09 09:03:10;;;;;;;5.13;2.60;;;25.30;99.90;;;;;;4128520;28;20042;-60
2023/06/09 09:05:11;;;;;;;2.70;2.38;;;25.00;99.90;;;;;;4127736;28;20438;-63
2023/06/09 09:07:13;;;;;;;2.60;2.00;;;24.80;99.90;;;;;;4128461;28;20097;-63
2023/06/09 09:09:15;;;;;;;3.45;2.47;;;24.60;99.90;;;;;;4126883;28;20097;-61
2023/06/09 09:11:17;;;;;;;2.45;2.25;;;24.70;99.90;;;;;;4128743;28;20053;-64
2023/06/09 09:13:24;;;;;;;3.13;2.00;;;24.80;99.90;;;;;;4127534;28;20026;-66
2023/06/09 09:15:28;;;;;;;4.03;2.67;;;24.70;99.90;;;;;;4128050;28;20618;-61
2023/06/09 09:17:30;;;;;;;6.85;3.13;;;24.80;99.90;;;;;;4127533;28;20030;-60
2023/06/09 09:19:35;;;;;;;4.55;2.30;;;24.80;99.90;;;;;;4128494;28;20052;-61
2023/06/09 09:21:37;;;;;;;6.68;2.28;;;24.80;99.90;;;;;;4127381;28;20507;-61
2023/06/09 09:23:38;;;;;;;4.35;2.20;;;24.80;99.90;;;;;;4126918;28;20043;-60
2023/06/09 09:25:40;;;;;;;3.60;2.33;;;24.90;99.90;;;;;;4126318;28;20046;-60
2023/06/09 09:27:42;;;;;;;2.97;1.88;;;24.80;99.90;;;;;;4127658;28;20065;-61
2023/06/09 09:29:43;;;;;;;4.85;3.05;;;24.80;99.90;;;;;;4127678;28;20545;-61
2023/06/09 09:31:45;;;;;;;4.15;2.13;;;24.70;99.90;;;;;;4127584;28;20034;-61
2023/06/09 09:33:48;;;;;;;2.10;1.83;;;24.80;99.90;;;;;;4127361;28;20486;-62
2023/06/09 09:35:54;;;;;;;3.35;1.98;;;24.80;99.90;;;;;;4127526;28;20094;-60
2023/06/09 09:37:56;;;;;;;3.63;2.47;;;24.70;99.90;;;;;;4127786;28;20038;-59
2023/06/09 09:39:57;;;;;;;35.30;16.23;;;24.60;99.90;;;;;;4125764;28;20027;-60
2023/06/09 09:42:10;;;;;;;4.38;2.60;;;24.70;99.90;;;;;;4128252;28;20034;-62
2023/06/09 09:44:17;;;;;;;4.90;2.70;;;24.70;99.90;;;;;;4127012;28;20042;-60
2023/06/09 09:46:19;;;;;;;7.32;2.70;;;24.70;99.90;;;;;;4128543;28;20034;-62
2023/06/09 09:48:23;;;;;;;4.80;3.45;;;24.60;99.90;;;;;;4127254;28;20042;-61
2023/06/09 09:50:25;;;;;;;136.32;58.72;;;24.60;99.90;;;;;;4128586;28;20038;-61
2023/06/09 09:52:32;;;;;;;13.95;6.28;;;24.70;99.90;;;;;;4129534;28;20026;-60
2023/06/09 09:54:36;;;;;;;3.05;2.63;;;25.00;99.90;;;;;;4129655;28;20109;-59
2023/06/09 09:56:37;;;;;;;11.15;3.67;;;25.00;99.90;;;;;;4130455;28;20061;-60
2023/06/09 09:58:42;;;;;;;3.53;2.50;;;24.80;99.90;;;;;;4131666;28;20026;-61
2023/06/09 10:00:46;;;;;;;6.28;2.78;;;25.00;99.90;;;;;;4130226;28;20053;-62
2023/06/09 10:02:51;;;;;;;3.55;2.40;;;24.90;99.90;;;;;;4131098;28;20026;-61
2023/06/09 10:04:56;;;;;;;2.70;2.28;;;24.80;99.90;;;;;;4130283;28;20077;-60
2023/06/09 10:07:03;;;;;;;7.10;2.22;;;24.80;99.90;;;;;;4128401;28;20506;-61
2023/06/09 10:09:04;;;;;;;2.53;2.17;;;24.90;99.90;;;;;;4129898;28;20058;-61
2023/06/09 10:11:07;;;;;;;6.45;2.30;;;24.90;99.90;;;;;;4129601;28;20042;-60
2023/06/09 10:13:08;;;;;;;8.10;2.75;;;24.90;99.90;;;;;;4130061;28;20355;-61
2023/06/09 10:15:10;;;;;;;4.35;1.90;;;25.20;99.90;;;;;;4129584;28;20368;-60
2023/06/09 10:17:13;;;;;;;4.95;1.77;;;25.30;99.90;;;;;;4130854;28;20538;-59
2023/06/09 10:19:16;;;;;;;2.88;1.80;;;25.50;99.90;;;;;;4128742;28;20116;-60
2023/06/09 10:21:19;;;;;;;1.92;1.67;;;25.90;99.90;;;;;;4130700;28;20109;-58
2023/06/09 10:23:21;;;;;;;3.50;2.10;;;26.30;99.90;;;;;;4129844;28;20104;-61
2023/06/09 10:25:24;;;;;;;4.03;2.10;;;26.60;99.90;;;;;;4130340;28;20077;-60
2023/06/09 10:27:25;;;;;;;4.28;2.28;;;26.60;99.90;;;;;;4129282;28;20062;-62
2023/06/09 10:29:27;;;;;;;3.58;1.90;;;26.50;99.90;;;;;;4130346;28;20602;-61
2023/06/09 10:31:34;;;;;;;8.65;3.00;;;26.30;99.90;;;;;;4129251;28;20544;-60
2023/06/09 10:33:38;;;;;;;2.33;1.90;;;25.90;99.90;;;;;;4130747;28;20367;-61
2023/06/09 10:35:43;;;;;;;2.03;1.85;;;25.60;99.90;;;;;;4129230;28;20026;-61
2023/06/09 10:37:46;;;;;;;2.45;2.25;;;25.40;99.90;;;;;;4130042;28;20050;-60